Time;durP1;ratioP1;P1;durP2;ratioP2;P2;SDS_P1;SDS_P2;PMS_P1;PMS_P2;Temp;Humidity;BMP_temperature;BMP_pressure;BME280_temperature;BME280_humidity;BME280_pressure;Samples;Min_cycle;Max_cycle;Signal;HPM_P1;HPM_P2
2021/01/09 00:01:02;;;;;;;39.20;18.87;;;-1.90;99.90;;;;;;4173352;28;20273;-42
2021/01/09 00:03:04;;;;;;;34.33;18.57;;;-1.90;99.90;;;;;;4173397;28;20316;-54
2021/01/09 00:05:06;;;;;;;35.53;16.90;;;-1.90;99.90;;;;;;4173473;28;20721;-50
2021/01/09 00:07:08;;;;;;;38.03;18.87;;;-1.90;99.90;;;;;;4172902;28;20328;-61
2021/01/09 00:09:10;;;;;;;36.33;16.87;;;-1.80;99.90;;;;;;4172854;28;20313;-39
2021/01/09 00:11:11;;;;;;;35.93;17.77;;;-1.80;99.90;;;;;;4172963;28;20328;-38
2021/01/09 00:13:12;;;;;;;34.47;17.13;;;-1.80;99.90;;;;;;4171724;28;21395;-38
2021/01/09 00:15:13;;;;;;;33.00;17.27;;;-1.80;99.90;;;;;;4172830;28;20266;-40
2021/01/09 00:17:15;;;;;;;36.87;18.23;;;-1.80;99.90;;;;;;4173057;28;20316;-45
2021/01/09 00:19:16;;;;;;;39.37;20.03;;;-1.80;99.90;;;;;;4173049;28;20274;-39
2021/01/09 00:21:17;;;;;;;42.27;17.97;;;-1.80;99.90;;;;;;4173486;28;20289;-39
2021/01/09 00:23:18;;;;;;;42.43;19.93;;;-1.80;99.90;;;;;;4173092;28;20999;-39
2021/01/09 00:25:20;;;;;;;41.57;19.83;;;-1.90;99.90;;;;;;4172778;28;20305;-39
2021/01/09 00:27:21;;;;;;;39.53;20.67;;;-1.90;99.90;;;;;;4172739;28;20344;-37
2021/01/09 00:29:22;;;;;;;36.27;19.40;;;-2.00;99.90;;;;;;4172891;28;20293;-40
2021/01/09 00:31:23;;;;;;;38.87;18.80;;;-2.00;99.90;;;;;;4173383;28;20270;-42
2021/01/09 00:33:24;;;;;;;37.00;19.13;;;-2.10;99.90;;;;;;4172809;28;20332;-38
2021/01/09 00:35:26;;;;;;;35.93;18.57;;;-2.10;99.90;;;;;;4172500;28;20274;-47
2021/01/09 00:37:28;;;;;;;38.10;19.10;;;-2.10;99.90;;;;;;4172893;28;20311;-39
2021/01/09 00:39:29;;;;;;;35.57;18.53;;;-2.10;99.90;;;;;;4173059;28;20611;-39
2021/01/09 00:41:32;;;;;;;41.40;19.67;;;-2.10;99.90;;;;;;4172215;28;20772;-39
2021/01/09 00:43:33;;;;;;;37.80;19.57;;;-2.10;99.90;;;;;;4171362;28;20294;-38
2021/01/09 00:45:34;;;;;;;37.97;18.40;;;-2.20;99.90;;;;;;4172779;28;20324;-38
2021/01/09 00:47:36;;;;;;;37.23;18.50;;;-2.20;99.90;;;;;;4172637;28;20308;-38
2021/01/09 00:49:37;;;;;;;37.83;18.17;;;-2.20;99.90;;;;;;4172759;28;20701;-40
2021/01/09 00:51:38;;;;;;;37.50;18.03;;;-2.20;99.90;;;;;;4172439;28;20328;-38
2021/01/09 00:53:39;;;;;;;35.87;17.53;;;-2.20;99.90;;;;;;4172189;28;20290;-38
2021/01/09 00:55:40;;;;;;;39.13;18.40;;;-2.20;99.90;;;;;;4172665;28;20274;-38
2021/01/09 00:57:42;;;;;;;40.20;19.10;;;-2.20;99.90;;;;;;4172005;28;20290;-38
2021/01/09 00:59:43;;;;;;;40.70;19.77;;;-2.20;99.90;;;;;;4171963;28;20692;-38
2021/01/09 01:01:45;;;;;;;35.87;18.23;;;-2.20;99.90;;;;;;4172377;28;20320;-46
2021/01/09 01:03:46;;;;;;;39.03;19.00;;;-2.30;99.90;;;;;;4172013;28;20293;-41
2021/01/09 01:05:47;;;;;;;40.13;18.40;;;-2.30;99.90;;;;;;4171824;28;20332;-39
2021/01/09 01:07:48;;;;;;;38.80;18.77;;;-2.30;99.90;;;;;;4172662;28;20673;-38
2021/01/09 01:09:50;;;;;;;36.63;18.10;;;-2.40;99.90;;;;;;4172468;28;20286;-41
2021/01/09 01:11:51;;;;;;;33.83;15.73;;;-2.40;99.90;;;;;;4171281;28;20335;-38
2021/01/09 01:13:53;;;;;;;38.07;15.73;;;-2.40;99.90;;;;;;4172561;28;20278;-39
2021/01/09 01:15:54;;;;;;;31.53;15.27;;;-2.40;99.90;;;;;;4171560;28;20804;-42
2021/01/09 01:17:55;;;;;;;32.80;16.03;;;-2.40;99.90;;;;;;4172626;28;20286;-42
2021/01/09 01:19:57;;;;;;;33.53;16.57;;;-2.30;99.90;;;;;;4172391;28;20328;-37
2021/01/09 01:21:58;;;;;;;31.27;15.83;;;-2.30;99.90;;;;;;4172747;28;21223;-39
2021/01/09 01:23:59;;;;;;;32.87;16.43;;;-2.30;99.90;;;;;;4172356;28;20274;-39
2021/01/09 01:26:00;;;;;;;31.73;15.10;;;-2.30;99.90;;;;;;4171812;28;20274;-40
2021/01/09 01:28:02;;;;;;;33.40;15.60;;;-2.30;99.90;;;;;;4172727;28;20575;-38
2021/01/09 01:30:04;;;;;;;32.57;15.03;;;-2.30;99.90;;;;;;4172328;28;20294;-41
2021/01/09 01:32:05;;;;;;;32.00;14.90;;;-2.30;99.90;;;;;;4172082;28;20278;-39
2021/01/09 01:34:06;;;;;;;30.27;14.67;;;-2.30;99.90;;;;;;4172207;28;20278;-41
2021/01/09 01:36:09;;;;;;;27.73;15.27;;;-2.30;99.90;;;;;;4172121;28;20400;-54
2021/01/09 01:38:10;;;;;;;34.10;17.00;;;-2.30;99.90;;;;;;4171954;28;20278;-51
2021/01/09 01:40:12;;;;;;;29.87;14.93;;;-2.30;99.90;;;;;;4172438;28;20332;-40
2021/01/09 01:42:13;;;;;;;32.97;15.83;;;-2.30;99.90;;;;;;4171608;28;20689;-36
2021/01/09 01:44:15;;;;;;;38.33;16.77;;;-2.40;99.90;;;;;;4172008;28;20270;-39
2021/01/09 01:46:17;;;;;;;35.73;16.73;;;-2.40;99.90;;;;;;4172255;28;20821;-39
2021/01/09 01:48:18;;;;;;;33.10;16.40;;;-2.40;99.90;;;;;;4172191;28;20331;-40
2021/01/09 01:50:19;;;;;;;31.63;15.50;;;-2.40;99.90;;;;;;4171536;28;20294;-38
2021/01/09 01:52:21;;;;;;;31.10;14.53;;;-2.50;99.90;;;;;;4172308;28;20289;-41
2021/01/09 01:54:22;;;;;;;30.17;14.43;;;-2.50;99.90;;;;;;4171938;28;20315;-38
2021/01/09 01:56:24;;;;;;;33.47;14.47;;;-2.50;99.90;;;;;;4171886;28;20773;-37
2021/01/09 01:58:25;;;;;;;24.63;12.37;;;-2.60;99.90;;;;;;4171996;28;20738;-38
2021/01/09 02:00:29;;;;;;;28.17;13.10;;;-2.60;99.90;;;;;;4171972;28;20701;-40
2021/01/09 02:02:30;;;;;;;26.63;12.60;;;-2.60;99.90;;;;;;4171987;28;20810;-39
2021/01/09 02:04:31;;;;;;;25.93;13.20;;;-2.60;99.90;;;;;;4172120;28;20400;-38
2021/01/09 02:06:35;;;;;;;24.20;12.40;;;-2.60;99.90;;;;;;4171270;28;20266;-41
2021/01/09 02:08:41;;;;;;;25.47;12.53;;;-2.60;99.90;;;;;;4171001;28;20673;-49
2021/01/09 02:10:46;;;;;;;21.57;11.67;;;-2.50;99.90;;;;;;4171739;28;20272;-44
2021/01/09 02:12:52;;;;;;;25.63;12.07;;;-2.50;99.90;;;;;;4171522;28;20286;-44
2021/01/09 02:14:56;;;;;;;22.37;11.13;;;-2.50;99.90;;;;;;4171542;28;20759;-38
2021/01/09 02:16:58;;;;;;;24.63;11.47;;;-2.60;99.90;;;;;;4171714;28;20336;-52
2021/01/09 02:19:00;;;;;;;24.47;11.87;;;-2.60;99.90;;;;;;4171386;28;20289;-46
2021/01/09 02:21:06;;;;;;;22.07;10.53;;;-2.60;99.90;;;;;;4171498;28;20274;-38
2021/01/09 02:23:07;;;;;;;23.87;11.67;;;-2.60;99.90;;;;;;4174092;28;20356;-37
2021/01/09 02:25:09;;;;;;;23.37;12.03;;;-2.50;99.90;;;;;;4175112;28;20278;-54
2021/01/09 02:27:11;;;;;;;26.33;11.30;;;-2.60;99.90;;;;;;4174431;28;20282;-37
2021/01/09 02:29:12;;;;;;;22.60;10.73;;;-2.50;99.90;;;;;;4174886;28;20297;-38
2021/01/09 02:31:18;;;;;;;25.03;11.10;;;-2.60;99.90;;;;;;4174830;28;20324;-39
2021/01/09 02:33:21;;;;;;;22.90;10.73;;;-2.60;99.90;;;;;;4174424;28;20262;-38
2021/01/09 02:35:25;;;;;;;25.30;11.27;;;-2.60;99.90;;;;;;4176028;28;20328;-37
2021/01/09 02:37:26;;;;;;;23.87;11.27;;;-2.60;99.90;;;;;;4191254;28;20257;-41
2021/01/09 02:39:28;;;;;;;23.83;11.07;;;-2.60;99.90;;;;;;4191142;28;20258;-39
2021/01/09 02:41:30;;;;;;;27.80;11.60;;;-2.60;99.90;;;;;;4191523;28;20676;-37
2021/01/09 02:43:31;;;;;;;22.88;10.73;;;-2.70;99.90;;;;;;4187162;28;20312;-38
2021/01/09 02:45:33;;;;;;;26.70;11.30;;;-2.70;99.90;;;;;;4173238;28;20477;-39
2021/01/09 02:47:34;;;;;;;20.20;10.10;;;-2.70;99.90;;;;;;4174598;28;20336;-38
2021/01/09 02:49:35;;;;;;;24.40;11.57;;;-2.70;99.90;;;;;;4174180;28;20289;-38
2021/01/09 02:51:36;;;;;;;24.97;10.83;;;-2.70;99.90;;;;;;4174284;28;20274;-40
2021/01/09 02:53:37;;;;;;;35.72;11.48;;;-2.70;99.90;;;;;;4174534;28;20336;-37
2021/01/09 02:55:39;;;;;;;48.47;15.80;;;-2.70;99.90;;;;;;4173978;28;20056;-39
2021/01/09 02:57:40;;;;;;;52.73;16.77;;;-2.70;99.90;;;;;;4174689;28;20742;-50
2021/01/09 02:59:42;;;;;;;54.53;17.57;;;-2.80;99.90;;;;;;4174219;28;20258;-37
2021/01/09 03:01:43;;;;;;;49.60;15.73;;;-2.80;99.90;;;;;;4174609;28;20296;-43
2021/01/09 03:03:44;;;;;;;42.70;13.53;;;-2.80;99.90;;;;;;4173904;28;20270;-38
2021/01/09 03:05:45;;;;;;;34.93;13.23;;;-2.80;99.90;;;;;;4173997;28;20250;-38
2021/01/09 03:07:47;;;;;;;36.90;13.07;;;-2.80;99.90;;;;;;4174280;28;20262;-38
2021/01/09 03:09:48;;;;;;;29.23;12.43;;;-2.90;99.90;;;;;;4173892;28;20343;-41
2021/01/09 03:11:49;;;;;;;25.57;12.33;;;-2.90;99.90;;;;;;4174741;28;21141;-43
2021/01/09 03:13:50;;;;;;;25.83;12.30;;;-2.90;99.90;;;;;;4172776;28;21201;-39
2021/01/09 03:15:51;;;;;;;28.03;11.27;;;-2.90;99.90;;;;;;4174265;28;20668;-41
2021/01/09 03:17:53;;;;;;;28.33;13.03;;;-3.00;99.90;;;;;;4174262;28;20750;-38
2021/01/09 03:19:54;;;;;;;25.55;13.27;;;-3.00;99.90;;;;;;4174234;28;20266;-38
2021/01/09 03:21:55;;;;;;;25.10;11.07;;;-3.00;99.90;;;;;;4174360;28;20482;-40
2021/01/09 03:23:56;;;;;;;19.13;9.60;;;-3.00;99.90;;;;;;4205433;28;20276;-38
2021/01/09 03:25:57;;;;;;;16.88;8.88;;;-3.00;99.90;;;;;;4173749;28;20282;-36
2021/01/09 03:27:59;;;;;;;14.63;7.43;;;-3.00;99.90;;;;;;4173727;28;20037;-38
2021/01/09 03:30:00;;;;;;;17.07;7.27;;;-3.00;99.90;;;;;;4173400;28;20297;-39
2021/01/09 03:32:01;;;;;;;16.00;7.80;;;-3.00;99.90;;;;;;4173937;28;20324;-38
2021/01/09 03:34:02;;;;;;;17.57;8.13;;;-3.00;99.90;;;;;;4172780;28;20328;-39
2021/01/09 03:36:04;;;;;;;13.60;7.77;;;-3.00;99.90;;;;;;4173815;28;20271;-38
2021/01/09 03:38:06;;;;;;;14.20;8.30;;;-3.00;99.90;;;;;;4172928;28;20324;-37
2021/01/09 03:40:07;;;;;;;14.50;8.10;;;-3.00;99.90;;;;;;4173390;28;20266;-42
2021/01/09 03:42:10;;;;;;;17.10;7.90;;;-3.00;99.90;;;;;;4173968;28;20266;-37
2021/01/09 03:44:11;;;;;;;17.83;8.47;;;-3.00;99.90;;;;;;4173596;28;20739;-39
2021/01/09 03:46:12;;;;;;;14.30;7.53;;;-3.10;99.90;;;;;;4173774;28;20304;-38
2021/01/09 03:48:13;;;;;;;12.80;7.30;;;-3.10;99.90;;;;;;4173607;28;20881;-38
2021/01/09 03:50:14;;;;;;;18.27;7.82;;;-3.10;99.90;;;;;;4172965;28;20835;-39
2021/01/09 03:52:16;;;;;;;14.63;7.77;;;-3.10;99.90;;;;;;4173435;28;20911;-41
2021/01/09 03:54:17;;;;;;;16.23;8.10;;;-3.10;99.90;;;;;;4172856;28;20270;-40
2021/01/09 03:56:18;;;;;;;20.63;8.23;;;-3.10;99.90;;;;;;4173586;28;20263;-40
2021/01/09 03:58:21;;;;;;;20.83;8.40;;;-3.10;99.90;;;;;;4173485;28;20033;-38
2021/01/09 04:00:22;;;;;;;15.17;7.23;;;-3.10;99.90;;;;;;4173323;28;20424;-38
2021/01/09 04:02:23;;;;;;;13.60;6.97;;;-3.10;99.90;;;;;;4172868;28;20324;-42
2021/01/09 04:04:24;;;;;;;14.00;6.80;;;-3.10;99.90;;;;;;4173492;28;20258;-39
2021/01/09 04:06:25;;;;;;;12.67;6.50;;;-3.10;99.90;;;;;;4172658;28;20033;-52
2021/01/09 04:08:26;;;;;;;13.85;6.85;;;-3.10;99.90;;;;;;4173398;28;20266;-38
2021/01/09 04:10:28;;;;;;;16.70;7.20;;;-3.00;99.90;;;;;;4173496;28;20110;-37
2021/01/09 04:12:29;;;;;;;14.65;6.90;;;-3.10;99.90;;;;;;4173050;28;20329;-38
2021/01/09 04:14:30;;;;;;;17.80;7.70;;;-3.10;99.90;;;;;;4172564;28;20078;-44
2021/01/09 04:16:35;;;;;;;15.45;6.72;;;-3.10;99.90;;;;;;4173256;28;20831;-54
2021/01/09 04:18:36;;;;;;;16.50;7.10;;;-3.10;99.90;;;;;;4172885;28;20020;-39
2021/01/09 04:20:37;;;;;;;10.83;6.10;;;-3.10;99.90;;;;;;4173161;28;20471;-39
2021/01/09 04:22:38;;;;;;;13.43;6.18;;;-3.10;99.90;;;;;;4173464;28;20288;-40
2021/01/09 04:24:40;;;;;;;14.30;5.93;;;-3.10;99.90;;;;;;4173288;28;20032;-40
2021/01/09 04:26:41;;;;;;;10.02;5.95;;;-3.10;99.90;;;;;;4171782;28;20107;-41
2021/01/09 04:28:42;;;;;;;11.27;5.85;;;-3.10;99.90;;;;;;4172820;28;20492;-38
2021/01/09 04:30:43;;;;;;;11.93;5.63;;;-3.10;99.90;;;;;;4172810;28;20098;-39
2021/01/09 04:32:45;;;;;;;12.95;5.18;;;-3.00;99.90;;;;;;4172896;28;20075;-38
2021/01/09 04:34:47;;;;;;;10.30;5.60;;;-3.10;99.90;;;;;;4172486;28;20032;-38
2021/01/09 04:36:49;;;;;;;10.73;5.00;;;-3.10;99.90;;;;;;4172497;28;20270;-39
2021/01/09 04:38:50;;;;;;;12.73;5.77;;;-3.10;99.90;;;;;;4172626;28;20262;-40
2021/01/09 04:40:51;;;;;;;10.65;5.47;;;-3.10;99.90;;;;;;4172940;28;20336;-38
2021/01/09 04:42:53;;;;;;;9.18;5.07;;;-3.10;99.90;;;;;;4172730;28;20408;-57
2021/01/09 04:44:54;;;;;;;9.67;5.20;;;-3.10;99.90;;;;;;4172505;28;20115;-41
2021/01/09 04:47:00;;;;;;;12.35;6.38;;;-3.10;99.90;;;;;;4172414;28;20661;-38
2021/01/09 04:49:01;;;;;;;10.37;4.80;;;-3.10;99.90;;;;;;4172141;28;20037;-38
2021/01/09 04:51:03;;;;;;;14.17;5.93;;;-3.10;99.90;;;;;;4172930;28;20298;-38
2021/01/09 04:53:04;;;;;;;10.75;5.30;;;-3.10;99.90;;;;;;4172852;28;20840;-40
2021/01/09 04:55:06;;;;;;;10.23;5.68;;;-3.10;99.90;;;;;;4172192;28;20041;-38
2021/01/09 04:57:07;;;;;;;11.90;5.97;;;-3.20;99.90;;;;;;4172641;28;20126;-39
2021/01/09 04:59:10;;;;;;;10.88;5.00;;;-3.20;99.90;;;;;;4172487;28;20328;-37
2021/01/09 05:01:12;;;;;;;9.23;5.37;;;-3.20;99.90;;;;;;4170890;28;20049;-38
2021/01/09 05:03:13;;;;;;;11.07;5.43;;;-3.20;99.90;;;;;;4172837;28;20258;-37
2021/01/09 05:05:15;;;;;;;13.43;5.07;;;-3.20;99.90;;;;;;4171995;28;20443;-37
2021/01/09 05:07:16;;;;;;;11.00;5.50;;;-3.30;99.90;;;;;;4172071;28;20324;-37
2021/01/09 05:09:17;;;;;;;10.68;5.55;;;-3.30;99.90;;;;;;4172789;28;20029;-38
2021/01/09 05:11:20;;;;;;;11.93;6.28;;;-3.20;99.90;;;;;;4172670;28;20459;-37
2021/01/09 05:13:23;;;;;;;11.10;5.97;;;-3.20;99.90;;;;;;4171826;28;20049;-38
2021/01/09 05:15:35;;;;;;;13.85;7.05;;;-3.30;99.90;;;;;;4171962;28;20825;-39
2021/01/09 05:17:38;;;;;;;14.67;6.80;;;-3.30;99.90;;;;;;4172335;28;20489;-39
2021/01/09 05:19:41;;;;;;;22.60;8.40;;;-3.30;99.90;;;;;;4172097;28;20278;-39
2021/01/09 05:21:43;;;;;;;16.60;8.18;;;-3.40;99.90;;;;;;4172334;28;20055;-38
2021/01/09 05:23:54;;;;;;;15.98;7.97;;;-3.40;99.90;;;;;;4172257;28;20083;-38
2021/01/09 05:25:58;;;;;;;16.25;8.05;;;-3.50;99.90;;;;;;4171357;28;20041;-37
2021/01/09 05:28:00;;;;;;;17.63;8.18;;;-3.50;99.90;;;;;;4171354;28;20138;-37
2021/01/09 05:30:03;;;;;;;22.07;9.13;;;-3.50;99.90;;;;;;4172102;28;20037;-38
2021/01/09 05:32:06;;;;;;;16.63;8.52;;;-3.60;99.90;;;;;;4172009;28;21058;-39
2021/01/09 05:34:07;;;;;;;20.08;9.73;;;-3.60;99.90;;;;;;4171583;28;20025;-40
2021/01/09 05:36:09;;;;;;;23.30;9.68;;;-3.60;99.90;;;;;;4171682;28;21173;-45
2021/01/09 05:38:11;;;;;;;22.50;10.80;;;-3.70;99.90;;;;;;4170495;28;20094;-38
2021/01/09 05:40:12;;;;;;;30.65;12.43;;;-3.70;99.90;;;;;;4170843;28;20312;-38
2021/01/09 05:42:16;;;;;;;25.42;12.05;;;-3.80;99.90;;;;;;4171309;28;20094;-38
2021/01/09 05:44:17;;;;;;;34.67;12.90;;;-3.90;99.90;;;;;;4172116;28;20366;-39
2021/01/09 05:46:19;;;;;;;26.05;12.65;;;-4.00;99.90;;;;;;4171788;28;20063;-54
2021/01/09 05:48:20;;;;;;;30.50;13.85;;;-4.10;99.90;;;;;;4171615;28;20040;-40
2021/01/09 05:50:22;;;;;;;30.85;13.52;;;-4.10;99.90;;;;;;4188362;28;20465;-37
2021/01/09 05:52:27;;;;;;;26.52;13.25;;;-4.20;99.90;;;;;;4188419;28;20459;-42
2021/01/09 05:54:36;;;;;;;30.40;14.32;;;-4.20;99.90;;;;;;4188504;28;20052;-38
2021/01/09 05:56:40;;;;;;;30.58;14.10;;;-4.20;99.90;;;;;;4188320;28;20877;-43
2021/01/09 05:58:41;;;;;;;32.60;13.55;;;-4.10;99.90;;;;;;4190621;28;20197;-41
2021/01/09 06:00:44;;;;;;;33.20;14.07;;;-4.20;99.90;;;;;;4174934;28;20045;-39
2021/01/09 06:03:10;;;;;;;33.95;15.00;;;-4.20;99.90;;;;;;4174511;28;20048;-41
2021/01/09 06:05:12;;;;;;;30.15;13.75;;;-4.30;99.90;;;;;;4173691;28;20146;-36
2021/01/09 06:07:21;;;;;;;29.13;13.45;;;-4.30;99.90;;;;;;4174308;28;20433;-39
2021/01/09 06:09:32;;;;;;;33.92;14.50;;;-4.30;99.90;;;;;;4174592;28;20098;-38
2021/01/09 06:11:35;;;;;;;33.40;13.50;;;-4.30;99.90;;;;;;4174652;28;20122;-42
2021/01/09 06:13:38;;;;;;;37.38;14.43;;;-4.30;99.90;;;;;;4174355;28;20075;-39
2021/01/09 06:15:42;;;;;;;30.25;13.77;;;-4.30;99.90;;;;;;4174395;28;20066;-41
2021/01/09 06:17:44;;;;;;;30.73;14.18;;;-4.30;99.90;;;;;;4174435;28;20106;-39
2021/01/09 06:19:46;;;;;;;32.20;14.35;;;-4.30;99.90;;;;;;4174891;28;20816;-40
2021/01/09 06:21:48;;;;;;;32.33;13.98;;;-4.30;99.90;;;;;;4174663;28;20040;-56
2021/01/09 06:23:53;;;;;;;28.00;13.98;;;-4.30;99.90;;;;;;4174114;28;20029;-40
2021/01/09 06:25:57;;;;;;;28.92;14.35;;;-4.20;99.90;;;;;;4174134;28;20158;-39
2021/01/09 06:28:03;;;;;;;35.47;15.60;;;-4.20;99.90;;;;;;4174548;28;20110;-38
2021/01/09 06:30:08;;;;;;;31.83;14.55;;;-4.20;99.90;;;;;;4174634;28;20049;-37
2021/01/09 06:32:11;;;;;;;27.52;14.18;;;-4.00;99.90;;;;;;4174534;28;20439;-39
2021/01/09 06:34:14;;;;;;;30.23;12.43;;;-3.70;99.90;;;;;;4173943;28;20099;-53
2021/01/09 06:36:15;;;;;;;30.00;13.85;;;-3.30;99.90;;;;;;4174065;28;20551;-38
2021/01/09 06:38:17;;;;;;;30.67;14.80;;;-3.00;99.90;;;;;;4174078;28;20037;-39
2021/01/09 06:40:18;;;;;;;41.40;19.67;;;-2.70;99.90;;;;;;4173517;28;20319;-38
2021/01/09 06:42:20;;;;;;;39.50;18.80;;;-2.30;99.90;;;;;;4174876;28;20270;-39
2021/01/09 06:44:25;;;;;;;34.83;16.93;;;-2.00;99.90;;;;;;4173421;28;20262;-38
2021/01/09 06:46:29;;;;;;;33.27;16.77;;;-1.90;99.90;;;;;;4173899;28;20692;-43
2021/01/09 06:48:31;;;;;;;34.90;15.83;;;-1.70;99.90;;;;;;4173305;28;20328;-40
2021/01/09 06:50:33;;;;;;;28.50;13.63;;;-1.40;99.90;;;;;;4173875;28;20853;-38
2021/01/09 06:52:54;;;;;;;31.90;15.97;;;-1.00;99.90;;;;;;4173838;28;20831;-40
2021/01/09 06:54:56;;;;;;;35.20;17.67;;;-0.70;99.90;;;;;;4173026;28;20278;-37
2021/01/09 06:57:03;;;;;;;21.87;11.90;;;-0.60;99.90;;;;;;4173666;28;20282;-38
2021/01/09 06:59:04;;;;;;;19.97;9.97;;;-0.30;99.90;;;;;;4163548;28;20685;-40
2021/01/09 07:01:19;;;;;;;21.70;9.87;;;0.00;99.90;;;;;;4173583;28;20730;-41
2021/01/09 07:03:22;;;;;;;17.93;8.83;;;0.20;99.90;;;;;;4173332;28;20259;-38
2021/01/09 07:05:23;;;;;;;17.93;9.97;;;0.50;99.90;;;;;;4173338;28;21140;-39
2021/01/09 07:07:51;;;;;;;17.43;10.53;;;0.80;99.90;;;;;;4174141;28;20816;-40
2021/01/09 07:09:52;;;;;;;18.90;10.87;;;0.80;99.90;;;;;;4172325;28;20332;-38
2021/01/09 07:11:55;;;;;;;18.73;9.00;;;0.80;99.90;;;;;;4173157;28;20324;-39
2021/01/09 07:14:13;;;;;;;18.53;8.97;;;1.10;99.90;;;;;;4173055;28;20836;-39
2021/01/09 07:16:16;;;;;;;13.23;7.03;;;1.50;99.90;;;;;;4173026;28;20855;-41
2021/01/09 07:18:20;;;;;;;14.83;6.27;;;1.80;99.90;;;;;;4163447;28;20352;-39
2021/01/09 07:20:23;;;;;;;17.03;6.20;;;2.00;99.90;;;;;;4173652;28;20851;-42
2021/01/09 07:22:26;;;;;;;11.67;6.00;;;2.00;99.90;;;;;;4174136;28;20272;-42
2021/01/09 07:24:29;;;;;;;12.60;6.53;;;1.90;99.90;;;;;;4172411;28;20331;-39
2021/01/09 07:26:30;;;;;;;9.33;5.37;;;1.90;99.90;;;;;;4172513;28;20316;-38
2021/01/09 07:28:36;;;;;;;11.10;5.97;;;2.10;99.90;;;;;;4173615;28;20386;-38
2021/01/09 07:30:37;;;;;;;8.27;5.23;;;2.40;99.90;;;;;;4171782;28;20060;-38
2021/01/09 07:32:49;;;;;;;9.23;5.20;;;2.20;99.90;;;;;;4172918;28;20290;-36
2021/01/09 07:34:51;;;;;;;8.47;5.50;;;2.30;99.90;;;;;;4173121;28;20032;-36
2021/01/09 07:36:53;;;;;;;13.43;5.67;;;2.40;99.90;;;;;;4173333;28;20045;-39
2021/01/09 07:39:04;;;;;;;8.63;5.27;;;2.50;99.90;;;;;;4172948;28;20033;-37
2021/01/09 07:41:07;;;;;;;11.20;6.07;;;2.60;99.90;;;;;;4168633;28;20040;-38
2021/01/09 07:43:38;;;;;;;9.43;6.10;;;2.90;99.90;;;;;;4173329;28;20474;-38
2021/01/09 07:45:39;;;;;;;12.77;6.43;;;3.20;99.90;;;;;;4172916;28;20042;-37
2021/01/09 07:47:41;;;;;;;11.17;6.23;;;3.40;99.90;;;;;;4173354;28;20052;-38
2021/01/09 07:49:54;;;;;;;10.27;5.73;;;3.30;99.90;;;;;;4172884;28;20083;-38
2021/01/09 07:52:24;;;;;;;10.43;5.00;;;3.30;99.90;;;;;;4173382;28;20095;-41
2021/01/09 07:54:35;;;;;;;8.47;5.07;;;3.10;99.90;;;;;;4172318;28;20094;-44
2021/01/09 07:56:39;;;;;;;12.13;7.37;;;2.80;99.90;;;;;;4172590;28;20116;-38
2021/01/09 07:58:44;;;;;;;11.30;6.30;;;2.50;99.90;;;;;;4172841;28;20473;-43
2021/01/09 08:00:47;;;;;;;10.67;6.50;;;2.50;99.90;;;;;;4172417;28;20274;-38
2021/01/09 08:02:49;;;;;;;10.87;6.13;;;2.60;99.90;;;;;;4172242;28;20090;-40
2021/01/09 08:04:50;;;;;;;17.67;7.40;;;2.60;99.90;;;;;;4172412;28;20033;-37
2021/01/09 08:06:51;;;;;;;14.97;6.80;;;2.70;99.90;;;;;;4172067;28;20041;-37
2021/01/09 08:08:53;;;;;;;19.13;8.60;;;2.80;99.90;;;;;;4173100;28;20029;-38
2021/01/09 08:10:54;;;;;;;11.87;7.00;;;3.20;99.90;;;;;;4171882;28;20087;-39
2021/01/09 08:13:06;;;;;;;13.70;8.17;;;3.60;99.90;;;;;;4172658;28;20083;-45
2021/01/09 08:15:08;;;;;;;11.90;6.80;;;3.70;99.90;;;;;;4172517;28;20033;-44
2021/01/09 08:17:12;;;;;;;14.07;7.23;;;3.70;99.90;;;;;;4171815;28;20071;-43
2021/01/09 08:19:18;;;;;;;11.57;7.00;;;3.60;99.90;;;;;;4171810;28;20036;-37
2021/01/09 08:21:24;;;;;;;24.83;12.70;;;3.30;99.90;;;;;;4168008;28;20041;-39
2021/01/09 08:23:25;;;;;;;18.83;9.63;;;3.30;99.90;;;;;;4172042;28;20282;-45
2021/01/09 08:25:28;;;;;;;13.67;8.67;;;3.40;99.90;;;;;;4171485;28;20332;-39
2021/01/09 08:27:30;;;;;;;20.10;7.87;;;3.80;99.90;;;;;;4170486;28;20706;-45
2021/01/09 08:29:31;;;;;;;11.57;6.87;;;4.30;99.50;;;;;;4172538;28;20250;-38
2021/01/09 08:31:36;;;;;;;16.03;6.73;;;4.70;99.00;;;;;;4172004;28;20298;-38
2021/01/09 08:33:37;;;;;;;10.30;6.37;;;4.80;97.50;;;;;;4172424;28;20670;-40
2021/01/09 08:35:50;;;;;;;17.03;7.10;;;4.50;96.30;;;;;;4171860;28;20290;-36
2021/01/09 08:37:52;;;;;;;13.03;7.10;;;4.30;96.60;;;;;;4171390;28;20344;-37
2021/01/09 08:39:54;;;;;;;18.90;10.13;;;4.20;95.70;;;;;;4171283;28;20320;-43
2021/01/09 08:41:55;;;;;;;11.73;6.63;;;4.10;96.10;;;;;;4172345;28;20262;-39
2021/01/09 08:44:14;;;;;;;20.60;7.90;;;4.40;96.70;;;;;;4172487;28;20315;-39
2021/01/09 08:46:17;;;;;;;17.03;7.63;;;4.60;94.80;;;;;;4172346;28;20670;-40
2021/01/09 08:48:28;;;;;;;13.10;6.53;;;4.60;94.90;;;;;;4170750;28;20262;-36
2021/01/09 08:50:31;;;;;;;13.33;6.87;;;4.60;94.80;;;;;;4171968;28;20844;-37
2021/01/09 08:52:33;;;;;;;17.57;6.67;;;4.70;94.60;;;;;;4172305;28;20308;-38
2021/01/09 08:54:37;;;;;;;11.03;6.07;;;4.80;94.10;;;;;;4171871;28;20282;-38
2021/01/09 08:56:38;;;;;;;11.00;6.07;;;4.90;93.90;;;;;;4172055;28;20339;-39
2021/01/09 08:58:40;;;;;;;9.53;5.13;;;5.10;93.80;;;;;;4172231;28;20266;-38
2021/01/09 09:00:41;;;;;;;13.53;6.40;;;5.10;92.50;;;;;;4171792;28;20300;-37
2021/01/09 09:02:43;;;;;;;12.13;6.27;;;5.20;92.20;;;;;;4177958;28;20273;-37
2021/01/09 09:04:47;;;;;;;9.30;5.97;;;4.90;91.60;;;;;;4176163;28;20300;-38
2021/01/09 09:06:58;;;;;;;12.20;7.00;;;4.60;92.00;;;;;;4171991;28;20049;-36
2021/01/09 09:09:00;;;;;;;12.65;7.13;;;4.20;92.00;;;;;;4171712;28;20270;-37
2021/01/09 09:11:03;;;;;;;15.73;7.70;;;4.10;92.30;;;;;;4171260;28;20041;-38
2021/01/09 09:13:22;;;;;;;14.73;7.60;;;4.20;92.70;;;;;;4171863;28;20734;-40
2021/01/09 09:15:28;;;;;;;15.27;7.30;;;4.60;91.40;;;;;;4171573;28;20340;-37
2021/01/09 09:17:29;;;;;;;10.43;6.23;;;5.00;91.30;;;;;;4171739;28;20282;-38
2021/01/09 09:19:38;;;;;;;10.07;5.43;;;5.20;91.60;;;;;;4172006;28;20391;-40
2021/01/09 09:21:44;;;;;;;11.90;6.47;;;5.10;89.60;;;;;;4171823;28;20669;-40
2021/01/09 09:23:53;;;;;;;13.40;7.23;;;4.80;90.30;;;;;;4171566;28;20319;-37
2021/01/09 09:26:09;;;;;;;14.07;6.70;;;4.60;90.40;;;;;;4171669;28;20343;-36
2021/01/09 09:28:10;;;;;;;10.00;5.90;;;4.30;91.70;;;;;;4171555;28;20290;-38
2021/01/09 09:30:15;;;;;;;13.47;6.47;;;3.90;91.90;;;;;;4171639;28;20749;-38
2021/01/09 09:32:28;;;;;;;12.00;5.73;;;3.50;92.40;;;;;;4171282;28;20355;-37
2021/01/09 09:34:31;;;;;;;10.43;6.70;;;3.40;93.10;;;;;;4171338;28;20737;-35
2021/01/09 09:36:51;;;;;;;15.37;8.70;;;3.30;93.50;;;;;;4171857;28;20301;-39
2021/01/09 09:38:52;;;;;;;15.50;8.70;;;3.30;93.30;;;;;;4171462;28;20270;-53
2021/01/09 09:41:04;;;;;;;14.77;8.10;;;2.80;93.80;;;;;;4171355;28;20037;-42
2021/01/09 09:43:16;;;;;;;16.33;10.23;;;2.50;94.40;;;;;;4172048;28;20269;-37
2021/01/09 09:45:17;;;;;;;22.13;11.47;;;2.10;95.00;;;;;;4171687;28;20274;-38
2021/01/09 09:47:26;;;;;;;22.33;12.43;;;1.90;96.00;;;;;;4172038;28;20262;-51
2021/01/09 09:49:27;;;;;;;23.60;12.70;;;1.60;96.60;;;;;;4170008;28;20810;-40
2021/01/09 09:51:34;;;;;;;21.33;13.07;;;1.30;97.60;;;;;;4170823;28;20721;-40
2021/01/09 09:53:38;;;;;;;27.83;14.40;;;1.30;98.60;;;;;;4171381;28;20347;-36
2021/01/09 09:55:39;;;;;;;23.43;13.27;;;1.30;99.20;;;;;;4169481;28;21102;-36
2021/01/09 09:57:40;;;;;;;24.80;13.73;;;1.30;98.90;;;;;;4171513;28;20258;-42
2021/01/09 09:59:42;;;;;;;26.83;13.23;;;1.20;99.60;;;;;;4171196;28;20270;-36
2021/01/09 10:01:43;;;;;;;21.33;12.30;;;1.20;99.90;;;;;;4171148;28;20274;-37
2021/01/09 10:03:44;;;;;;;21.43;11.97;;;1.20;99.90;;;;;;4171072;28;20264;-36
2021/01/09 10:06:01;;;;;;;18.87;11.33;;;1.10;99.90;;;;;;4171175;28;20266;-39
2021/01/09 10:08:13;;;;;;;24.53;13.10;;;0.90;99.90;;;;;;4171427;28;20332;-42
2021/01/09 10:10:23;;;;;;;21.70;11.20;;;0.80;99.90;;;;;;4171368;28;20292;-38
2021/01/09 10:12:24;;;;;;;23.13;10.25;;;0.80;99.90;;;;;;4171687;28;20298;-38
2021/01/09 10:14:25;;;;;;;19.57;10.47;;;0.80;99.90;;;;;;4171386;28;20029;-44
2021/01/09 10:16:29;;;;;;;20.70;11.37;;;0.80;99.90;;;;;;4169366;28;20266;-37
2021/01/09 10:18:32;;;;;;;20.30;9.97;;;0.70;99.90;;;;;;4171508;28;21134;-36
2021/01/09 10:20:33;;;;;;;17.73;9.90;;;0.80;99.90;;;;;;4170799;28;20744;-35
2021/01/09 10:22:34;;;;;;;15.73;9.20;;;0.90;99.90;;;;;;4170110;28;20270;-38
2021/01/09 10:24:35;;;;;;;19.40;9.53;;;0.90;99.90;;;;;;4169597;28;20300;-36
2021/01/09 10:26:38;;;;;;;18.10;9.47;;;1.00;99.90;;;;;;4171261;28;20278;-39
2021/01/09 10:28:39;;;;;;;16.63;9.20;;;1.00;99.90;;;;;;4171425;28;20389;-38
2021/01/09 10:30:40;;;;;;;16.27;8.80;;;1.00;99.90;;;;;;4171336;28;20304;-37
2021/01/09 10:32:41;;;;;;;16.73;8.30;;;1.00;99.90;;;;;;4171169;28;20756;-42